Alpa Corral, Argentina
Current Conditions -  °F | °C
As of 8:00 PM on Monday 24 Nov 2014 (Local Time) from SAOC Reporting Station
Clear Clear  
Wind Chill: 66°   Ceiling: Unl
Heat Index: 66°   Visibility: 6mi
Dew Point: 46°   Wind: 12mph
Humidity: 49%   Direction: 140°SE
Pressure: 29.91"   Gusts: NA
Location:  32.68°S, 64.73°W
Report Text: SAOC 242300Z 14010KT 9999 NSC 19/08 Q1013
Loading
Personal Weather Stations






























Interactive Weather Map New forecast layout! Learn more

10-Day Weather Forecast

Advertisements
Track Severe Weather on mobile